Whitehorse, Yukon Territory

1:13 AM PDT on October 22, 2014 (GMT -0700)
Whitehorse International | Change Station
CLOSE
Current Station
Airport
Location: Whitehorse,
Elevation: 2316 ft
Nearby Weather Stations

Elev 2316 ft 60.71 °N, 135.07 °W | Updated 13 minutes ago

Overcast
Overcast
36 °F
Feels Like 36 °F
N
0
Wind Variable Wind from North

Today is forecast to be nearly the same temperature as yesterday.

Today
High -- | Low -- °F
--% Chance of Precip.
Yesterday
High -- | Low -- °F
Precip. -- in
8:59 AM 6:28 PM
Waning Crescent, 3% visible
Pressure 29.37 in
Visibility 15.0 miles
Clouds Overcast 4000 ft
Dew Point 30 °F
Humidity 81%
Rainfall 0.00 in
Snow Depth Not available.
UV 0 out of 12
Pollen Not available.
Air Quality Not available.
Flu Activity Not available.
METAR CYXY 220800Z 00000KT 15SM OVC040 02/M01 A2927 RMK SC8 SLP943

More Conditions Fewer Conditions

Pressure 29.37 in
Visibility 15.0 miles
Clouds Overcast 4000 ft
Dew Point 30 °F
Humidity 81%
Rainfall 0.00 in
Snow Depth Not available.
UV 0 out of 12
Pollen Not available.
Air Quality Not available.
Flu Activity Not available.
METAR CYXY 220800Z 00000KT 15SM OVC040 02/M01 A2927 RMK SC8 SLP943

More Conditions Fewer Conditions

10-Day Weather Forecast

Almanac

Astronomy

Oct. 22, 2014 Rise Set
Actual Time 8:59 AM PDT 6:28 PM PDT
Civil Twilight 8:15 AM PDT 7:12 PM PDT
Nautical Twilight 7:25 AM PDT 8:02 PM PDT
Astronomical Twilight 6:36 AM PDT 8:51 PM PDT
Moon 7:31 AM PDT 6:10 PM PDT
Length of Visible Light 10h 57m
Length of Day
9h 28m
Tomorrow will be 5m 28s shorter.
Waning Crescent, 3% of the Moon is Illuminated
Today
Waning Crescent
Oct 23
New
Oct 30
First Quarter
Nov 6
Full
Nov 14
Last Quarter

Yesterday's Extremes

Country Highs Country Lows

Community

WunderPhotos

Upload Photos

1,763,889 photos uploaded!

Nearby

Snow Depth

Not available.

Earthquake Activity

City Distance Mag. Time & Date
No recent earthquake activity has been reported nearby.
Minimum magnitude displayed is 2.5.

Coastal Water Temperatures

Place Temperature
No Stations Reporting

Nearby Weather Stations